Latest Weather Observations for Melbourne Airport

IDV60901

Issued at 11:31 pm EST Wednesday 24 May 2017 (issued every 10 minutes, with the page automatically refreshed every 10 minutes)

About weather observations | Map of Melbourne area stations | Latest observations for Melbourne area | Other Formats
Station Details ID: 086282 Name: MELBOURNE AIRPORT Lat: -37.67 Lon: 144.83 Height: 113.4 m
Data from the previous 72 hours. | See also: Recent months at Melbourne Airport
Date/Time
EST
Temp
°C
App
Temp
°C
Dew
Point
°C
Rel
Hum
%
Delta-T
°C
Wind Press
QNH
hPa
Press
MSL
hPa
Rain since
9am
mm
Dir  Spd
km/h
Gust
km/h
Spd
kts
Gust
kts
24/11:00pm 12.3 9.2 7.4 72 2.4 NNW 13 15 7 8 1020.5 1020.5 0.0
24/10:30pm 12.6 10.3 7.5 71 2.5 NNW 9 13 5 7 1020.6 1020.6 0.0
24/10:00pm 12.8 10.1 7.5 70 2.6 NW 11 15 6 8 1020.5 1020.5 0.0
24/09:30pm 12.5 9.7 7.1 69 2.6 NW 11 13 6 7 1020.3 1020.3 0.0
24/09:00pm 12.3 9.1 6.9 69 2.6 NNW 13 17 7 9 1020.1 1020.1 0.0
24/08:30pm 12.9 10.4 6.7 66 3.0 NNW 9 13 5 7 1020.0 1020.0 0.0
24/08:00pm 13.2 10.3 6.5 64 3.2 NW 11 13 6 7 1019.8 1019.8 0.0
24/07:30pm 12.8 9.9 6.5 65 3.0 NW 11 19 6 10 1019.6 1019.6 0.0
24/07:00pm 13.1 10.6 6.4 64 3.2 NW 9 13 5 7 1019.4 1019.4 0.0
24/06:30pm 12.9 10.4 6.7 66 3.0 NW 9 13 5 7 1019.3 1019.3 0.0
24/06:00pm 12.3 9.5 6.9 69 2.6 W 11 13 6 7 1019.0 1019.0 0.0
24/05:30pm 12.9 9.6 6.4 64 3.1 WSW 13 17 7 9 1018.8 1018.8 0.0
24/05:00pm 13.3 9.6 6.4 63 3.3 WSW 15 19 8 10 1018.5 1018.5 0.0
24/04:30pm 14.1 9.6 6.2 59 3.8 WSW 19 26 10 14 1018.2 1018.2 0.0
24/04:00pm 14.9 10.3 6.5 57 4.1 WSW 20 32 11 17 1017.8 1017.9 0.0
24/03:30pm 14.9 8.3 6.2 56 4.2 WSW 30 37 16 20 1017.3 1017.4 0.0
24/03:00pm 16.0 8.7 5.6 50 5.0 WSW 33 46 18 25 1016.9 1017.0 0.0
24/02:50pm 15.7 8.8 4.7 48 5.2 W 30 48 16 26 1016.8 1016.9 0.0
24/02:30pm 14.8 8.5 5.8 55 4.3 WSW 28 35 15 19 1016.8 1016.9 0.0
24/02:00pm 15.4 8.3 5.6 52 4.7 WSW 32 43 17 23 1016.5 1016.6 0.0
24/01:30pm 16.8 10.0 7.0 52 4.9 W 32 43 17 23 1016.2 1016.2 0.0
24/01:00pm 16.0 10.0 6.9 54 4.5 W 28 35 15 19 1016.3 1016.4 0.0
24/12:30pm 15.4 10.3 7.8 60 3.8 W 24 35 13 19 1016.4 1016.5 0.0
24/12:00pm 15.1 9.3 7.9 62 3.6 W 28 35 15 19 1016.6 1016.7 0.0
24/11:30am 14.6 9.6 8.2 65 3.2 WSW 24 32 13 17 1016.7 1016.8 0.0
24/11:00am 15.6 8.9 7.4 58 4.1 WSW 32 39 17 21 1016.6 1016.7 0.0
24/10:30am 15.1 9.4 8.4 64 3.4 W 28 35 15 19 1016.5 1016.6 0.0
24/10:00am 14.1 10.5 8.3 68 2.9 W 17 30 9 16 1016.3 1016.4 0.0
24/09:30am 14.4 11.6 8.5 67 3.0 N 13 17 7 9 1016.0 1016.0 0.0
24/09:00am 12.1 9.0 7.4 73 2.3 N 13 17 7 9 1015.5 1015.5 0.0
24/08:30am 10.7 7.9 6.9 77 1.8 N 11 17 6 9 1015.4 1015.4 0.0
24/08:00am 11.6 8.0 6.6 71 2.4 NW 15 22 8 12 1015.0 1015.0 0.0
24/07:30am 10.6 7.2 6.1 74 2.1 NNW 13 17 7 9 1014.6 1014.6 0.0
24/07:00am 8.7 5.7 6.1 84 1.2 NNW 11 13 6 7 1014.3 1014.3 0.0
24/06:30am 8.4 5.1 6.2 86 1.0 N 13 15 7 8 1014.0 1014.0 0.0
24/06:00am 8.7 5.1 6.8 88 0.9 N 15 19 8 10 1013.6 1013.6 0.0
24/05:30am 9.7 5.9 7.4 85 1.1 N 17 19 9 10 1013.3 1013.3 0.0
24/05:00am 11.1 7.0 7.8 80 1.6 N 19 24 10 13 1012.9 1012.9 0.0
24/04:30am 10.0 6.7 7.9 87 1.0 N 15 19 8 10 1012.7 1012.7 0.0
24/04:00am 10.8 7.3 8.6 86 1.1 N 17 20 9 11 1012.5 1012.5 0.0
24/03:30am 12.3 8.8 8.7 79 1.8 NNW 17 20 9 11 1012.7 1012.7 0.0
24/03:00am 10.8 7.3 8.8 87 1.0 N 17 19 9 10 1012.6 1012.6 0.0
24/02:30am 11.0 7.5 8.6 85 1.2 N 17 19 9 10 1012.6 1012.6 0.0
24/02:00am 10.9 7.8 8.7 86 1.1 N 15 19 8 10 1012.5 1012.5 0.0
24/01:30am 11.0 7.6 9.2 89 0.9 N 17 19 9 10 1012.7 1012.7 0.0
24/01:00am 10.9 7.6 9.5 91 0.7 N 17 19 9 10 1012.7 1012.7 0.0
24/12:30am 12.8 9.7 10.3 85 1.3 NNW 17 22 9 12 1013.1 1013.1 0.0
24/12:00am 11.9 8.8 10.4 90 0.8 N 17 20 9 11 1013.0 1013.0 0.0
 
Date/Time
EST
Temp
°C
App
Temp
°C
Dew
Point
°C
Rel
Hum
%
Delta-T
°C
Wind Press
QNH
hPa
Press
MSL
hPa
Rain since
9am
mm
Dir  Spd
km/h
Gust
km/h
Spd
kts
Gust
kts
23/11:30pm 11.2 8.3 9.8 91 0.7 N 15 20 8 11 1013.6 1013.6 0.0
23/11:00pm 11.2 8.3 9.8 91 0.7 N 15 19 8 10 1013.9 1013.9 0.0
23/10:30pm 12.6 9.9 10.5 87 1.1 N 15 19 8 10 1014.3 1014.3 0.0
23/10:00pm 13.5 11.3 10.8 84 1.4 NW 13 19 7 10 1014.5 1014.5 0.0
23/09:30pm 11.7 8.9 10.1 90 0.8 NNW 15 20 8 11 1014.5 1014.5 0.0
23/09:00pm 13.6 10.7 11.0 84 1.4 N 17 20 9 11 1014.3 1014.3 0.0
23/08:30pm 13.8 10.5 10.8 82 1.6 N 19 22 10 12 1014.3 1014.3 0.0
23/08:00pm 13.6 10.0 10.6 82 1.6 N 20 26 11 14 1014.0 1014.0 0.0
23/07:30pm 13.3 9.7 10.4 82 1.5 N 20 26 11 14 1014.1 1014.1 0.0
23/07:00pm 13.6 10.1 10.1 79 1.8 N 19 24 10 13 1014.1 1014.1 0.0
23/06:30pm 14.1 10.4 10.3 78 2.0 N 20 28 11 15 1014.1 1014.1 0.0
23/06:00pm 14.0 11.6 10.2 78 2.0 N 13 19 7 10 1014.3 1014.3 0.0
23/05:30pm 14.5 11.2 9.7 73 2.5 N 17 19 9 10 1014.3 1014.3 0.0
23/05:00pm 15.4 12.6 9.9 70 2.9 N 15 19 8 10 1014.2 1014.2 0.0
23/04:30pm 16.5 12.4 10.1 66 3.4 N 22 26 12 14 1013.9 1013.9 0.0
23/04:00pm 17.1 11.0 9.7 61 3.9 N 32 41 17 22 1013.9 1013.9 0.0
23/03:30pm 17.5 11.2 9.8 60 4.1 N 33 39 18 21 1013.6 1013.6 0.0
23/03:00pm 17.9 11.7 10.2 60 4.1 N 33 43 18 23 1013.5 1013.5 0.0
23/02:30pm 17.6 10.9 9.7 60 4.2 N 35 46 19 25 1013.7 1013.7 0.0
23/02:00pm 17.3 11.3 10.0 62 3.9 N 32 48 17 26 1013.9 1013.9 0.0
23/01:30pm 17.4 11.0 9.4 59 4.2 N 33 44 18 24 1014.2 1014.2 0.0
23/01:00pm 16.3 10.6 9.8 65 3.4 N 30 39 16 21 1014.7 1014.7 0.0
23/12:30pm 16.4 10.2 10.0 66 3.4 N 33 46 18 25 1015.2 1015.2 0.0
23/12:00pm 15.7 9.0 9.8 68 3.1 N 35 46 19 25 1015.3 1015.3 0.0
23/11:47am 15.5 9.3 9.5 67 3.1 NNE 32 50 17 27 1015.6 1015.6 0.0
23/11:30am 15.0 8.8 9.2 68 3.0 N 32 43 17 23 1015.9 1015.9 0.0
23/11:10am 15.4 9.2 9.4 67 3.1 N 32 50 17 27 1016.8 1016.9 0.0
23/11:00am 15.5 8.7 9.3 66 3.2 N 35 50 19 27 1017.0 1017.1 0.0
23/10:30am 15.2 9.1 9.6 69 2.9 N 32 39 17 21 1016.8 1016.9 0.0
23/10:15am 14.7 8.5 9.3 70 2.8 N 32 50 17 27 1016.9 1017.0 0.0
23/10:00am 14.8 8.6 9.2 69 2.9 N 32 48 17 26 1017.0 1017.1 0.0
23/09:43am 15.1 8.8 9.1 67 3.1 N 32 50 17 27 1017.4 1017.5 0.0
23/09:30am 15.1 8.9 9.3 68 3.0 N 32 39 17 21 1017.4 1017.5 0.0
23/09:00am 14.7 8.9 9.3 70 2.8 N 30 37 16 20 1018.1 1018.1 0.0
23/08:30am 14.2 7.9 8.9 70 2.7 N 32 37 17 20 1018.2 1018.2 0.0
23/08:00am 13.8 8.2 8.7 71 2.6 N 28 33 15 18 1017.8 1017.9 0.0
23/07:30am 13.8 8.9 8.6 71 2.6 N 24 41 13 22 1018.3 1018.3 0.0
23/07:00am 13.7 9.6 8.5 71 2.6 N 20 30 11 16 1017.8 1017.9 0.0
23/06:30am 13.9 9.9 8.3 69 2.8 N 19 28 10 15 1018.5 1018.5 0.0
23/06:00am 14.4 9.8 8.0 65 3.2 NNW 22 32 12 17 1018.2 1018.2 0.0
23/05:30am 14.2 7.5 8.0 66 3.1 NNW 33 41 18 22 1017.6 1017.7 0.0
23/05:00am 14.1 8.0 8.1 67 3.0 N 30 37 16 20 1017.3 1017.4 0.0
23/04:30am 14.4 7.9 8.0 65 3.2 N 32 39 17 21 1016.4 1016.5 0.0
23/04:00am 14.4 6.5 8.0 65 3.2 N 39 50 21 27 1017.0 1017.1 0.0
23/03:30am 14.9 7.0 7.9 63 3.5 N 39 50 21 27 1017.0 1017.1 0.0
23/03:00am 15.2 6.5 7.8 61 3.7 N 43 54 23 29 1016.9 1017.0 0.0
23/02:30am 15.7 7.5 8.0 60 3.9 N 41 54 22 29 1017.0 1017.1 0.0
23/02:00am 15.9 7.6 7.7 58 4.1 N 41 52 22 28 1017.2 1017.3 0.0
23/01:30am 15.9 9.4 8.0 59 4.0 NNW 32 39 17 21 1017.4 1017.5 0.0
23/01:00am 15.8 10.1 8.3 61 3.8 NNW 28 41 15 22 1017.6 1017.7 0.0
23/12:45am 15.8 9.4 8.6 62 3.7 N 32 50 17 27 1017.4 1017.5 0.0
23/12:30am 15.6 9.6 8.8 64 3.5 NNW 30 39 16 21 1017.4 1017.5 0.0
23/12:18am 15.3 7.3 8.9 65 3.3 N 41 59 22 32 1017.2 1017.3 0.0
23/12:00am 15.0 5.7 9.2 68 3.0 N 48 57 26 31 1016.6 1016.7 0.0
 
Date/Time
EST
Temp
°C
App
Temp
°C
Dew
Point
°C
Rel
Hum
%
Delta-T
°C
Wind Press
QNH
hPa
Press
MSL
hPa
Rain since
9am
mm
Dir  Spd
km/h
Gust
km/h
Spd
kts
Gust
kts
22/11:36pm 15.3 5.6 9.1 66 3.2 N 50 70 27 38 1016.5 1016.6 0.0
22/11:30pm 15.1 5.8 9.3 68 3.0 N 48 61 26 33 1016.6 1016.7 0.0
22/11:00pm 15.4 7.1 9.2 66 3.2 N 43 56 23 30 1017.0 1017.1 0.0
22/10:31pm 15.2 6.4 9.6 69 2.9 N 46 65 25 35 1017.0 1017.1 0.0
22/10:30pm 15.3 6.1 9.5 68 3.0 N 48 65 26 35 1017.0 1017.1 0.0
22/10:19pm 15.1 6.7 9.7 70 2.8 N 44 70 24 38 1017.1 1017.2 0.0
22/10:00pm 14.9 7.5 9.9 72 2.6 N 39 48 21 26 1017.5 1017.6 0.0
22/09:30pm 15.0 8.1 10.2 73 2.5 N 37 52 20 28 1017.4 1017.5 0.0
22/09:00pm 15.1 9.1 10.1 72 2.6 N 32 44 17 24 1017.6 1017.7 0.0
22/08:30pm 15.3 10.5 10.4 72 2.6 NNE 26 37 14 20 1017.7 1017.8 0.0
22/08:00pm 15.4 12.4 10.5 72 2.6 NNE 17 30 9 16 1017.8 1017.9 0.0
22/07:30pm 15.7 11.6 10.2 70 2.9 NNE 22 35 12 19 1017.7 1017.8 0.0
22/07:00pm 15.9 10.2 9.8 67 3.2 NNE 30 44 16 24 1017.5 1017.6 0.0
22/06:48pm 15.7 9.6 9.8 68 3.1 NNE 32 50 17 27 1017.5 1017.6 0.0
22/06:30pm 15.8 9.7 9.7 67 3.2 NNE 32 41 17 22 1017.5 1017.6 0.0
22/06:00pm 16.0 12.0 9.2 64 3.5 NNE 20 32 11 17 1017.7 1017.8 0.0
22/05:30pm 16.1 10.9 8.9 62 3.7 N 26 37 14 20 1017.6 1017.7 0.0
22/05:00pm 16.8 10.5 8.9 59 4.1 NNE 32 41 17 22 1017.5 1017.6 0.0
22/04:30pm 17.7 11.1 8.4 54 4.8 NNE 33 41 18 22 1017.6 1017.7 0.0
22/04:00pm 18.0 12.4 10.1 60 4.2 NNE 30 39 16 21 1017.9 1018.0 0.0
22/03:30pm 17.5 10.4 9.7 60 4.1 N 37 48 20 26 1017.9 1018.0 0.0
22/03:00pm 18.7 12.8 10.6 59 4.4 NNE 32 41 17 22 1017.8 1017.9 0.0
22/02:30pm 18.5 12.7 10.7 60 4.2 NNE 32 44 17 24 1018.3 1018.3 0.0
22/02:04pm 18.5 12.4 10.5 59 4.3 NNE 33 52 18 28 1018.5 1018.5 0.0
22/02:00pm 18.4 12.5 10.4 59 4.3 NNE 32 43 17 23 1018.5 1018.5 0.0
22/01:30pm 18.3 12.5 10.7 61 4.1 NNE 32 41 17 22 1018.9 1018.9 0.0
22/01:00pm 18.3 12.5 10.7 61 4.1 N 32 39 17 21 1019.7 1019.7 0.0
22/12:30pm 18.1 12.2 10.5 61 4.1 N 32 44 17 24 1020.0 1020.0 0.0
22/12:00pm 17.8 12.3 10.5 62 3.9 NNE 30 37 16 20 1020.7 1020.7 0.0
22/11:30am 16.9 11.2 11.0 68 3.2 NNE 32 43 17 23 1021.2 1021.2 0.0
22/11:00am 16.4 11.4 10.8 69 3.0 NNE 28 37 15 20 1021.6 1021.6 0.0
22/10:30am 15.7 9.8 10.4 71 2.8 NNE 32 41 17 22 1021.9 1021.9 0.0
22/10:00am 15.2 9.2 10.2 72 2.6 N 32 39 17 21 1022.2 1022.2 0.0
22/09:30am 14.5 9.7 10.3 76 2.2 N 26 37 14 20 1022.5 1022.5 0.0
22/09:00am 13.7 8.5 10.2 79 1.8 N 28 32 15 17 1022.5 1022.5 0.0
22/08:30am 12.9 8.4 10.0 82 1.5 N 24 30 13 16 1022.6 1022.6 0.0
22/08:00am 12.5 7.6 10.0 85 1.3 N 26 33 14 18 1022.4 1022.4 0.0
22/07:30am 11.6 7.4 9.6 87 1.0 N 22 30 12 16 1022.3 1022.3 0.0
22/07:00am 11.2 6.6 9.6 90 0.8 N 24 28 13 15 1022.1 1022.1 0.0
22/06:30am 11.5 7.7 9.9 90 0.8 N 20 26 11 14 1022.0 1022.0 0.0
22/06:00am 11.5 7.0 9.9 90 0.8 N 24 30 13 16 1021.8 1021.8 0.0
22/05:30am 11.9 7.0 9.9 87 1.0 NNW 26 32 14 17 1021.5 1021.5 0.0
22/05:00am 12.2 7.3 10.1 87 1.1 NNW 26 33 14 18 1021.1 1021.1 0.0
22/04:30am 12.1 8.4 10.2 88 1.0 N 20 28 11 15 1020.9 1020.9 0.0
22/04:00am 13.2 8.0 10.3 82 1.5 N 28 39 15 21 1020.7 1020.7 0.0
22/03:30am 12.5 7.4 10.6 88 1.0 N 28 33 15 18 1020.8 1020.8 0.0
22/03:00am 13.0 8.4 10.9 87 1.1 N 26 32 14 17 1021.0 1021.0 0.0
22/02:30am 13.1 7.7 11.0 87 1.1 N 30 33 16 18 1021.1 1021.1 0.0
22/02:00am 13.2 7.8 10.9 86 1.2 N 30 35 16 19 1021.2 1021.2 0.0
22/01:30am 12.9 9.1 11.0 88 1.0 N 22 30 12 16 1021.3 1021.3 0.0
22/01:00am 12.3 9.7 10.8 90 0.8 N 15 19 8 10 1021.4 1021.4 0.0
22/12:30am 12.8 10.2 10.7 87 1.1 N 15 19 8 10 1021.5 1021.5 0.0
22/12:00am 12.9 10.7 10.8 87 1.1 N 13 19 7 10 1021.7 1021.7 0.0

Latest Capital City Observations: Canberra | Sydney | Melbourne | Brisbane | Adelaide | Perth | Hobart | Darwin

Other Formats:

Comma delimited format used in spreadsheet applications
http://www.bom.gov.au/fwo/IDV60901/IDV60901.94866.axf

JavaScript Object Notation format (JSON) in row-major order
http://www.bom.gov.au/fwo/IDV60901/IDV60901.94866.json